Time;durP1;ratioP1;P1;durP2;ratioP2;P2;SDS_P1;SDS_P2;PMS_P1;PMS_P2;Temp;Humidity;BMP_temperature;BMP_pressure;BME280_temperature;BME280_humidity;BME280_pressure;Samples;Min_cycle;Max_cycle;Signal;HPM_P1;HPM_P2
2021/05/03 00:01:50;;;;;;;6.10;5.00;;;;;;;6.74;62.38;101216.84;4988328;28;20037;-73
2021/05/03 00:04:16;;;;;;;7.93;5.28;;;;;;;6.74;62.52;101217.66;5035847;28;20445;-73
2021/05/03 00:06:41;;;;;;;7.72;5.32;;;;;;;6.67;62.45;101212.31;5018959;28;20033;-73
2021/05/03 00:09:07;;;;;;;8.32;5.63;;;;;;;6.59;62.73;101212.75;5031228;28;20498;-73
2021/05/03 00:11:32;;;;;;;7.57;5.00;;;;;;;6.57;62.76;101222.34;5034699;28;20521;-73
2021/05/03 00:13:58;;;;;;;6.70;5.22;;;;;;;6.53;62.88;101212.91;5020283;28;20029;-73
2021/05/03 00:16:23;;;;;;;8.18;5.47;;;;;;;6.51;63.10;101212.31;5060490;28;20042;-73
2021/05/03 00:18:49;;;;;;;7.30;4.97;;;;;;;6.42;62.80;101212.72;5034278;28;20029;-73
2021/05/03 00:21:14;;;;;;;7.22;5.68;;;;;;;6.39;63.08;101212.41;5034877;28;20033;-73
2021/05/03 00:23:40;;;;;;;7.10;5.43;;;;;;;6.34;63.49;101204.88;5049937;28;20036;-72
2021/05/03 00:26:07;;;;;;;6.93;5.40;;;;;;;6.31;63.42;101207.28;5064084;28;20407;-72
2021/05/03 00:28:33;;;;;;;6.43;5.35;;;;;;;6.26;63.28;101206.09;5029954;28;20026;-72
2021/05/03 00:30:58;;;;;;;9.45;5.47;;;;;;;6.26;63.33;101208.84;5019716;28;20044;-72
2021/05/03 00:33:24;;;;;;;8.02;5.50;;;;;;;6.23;63.63;101200.25;5038034;28;20033;-72
2021/05/03 00:35:49;;;;;;;8.77;5.38;;;;;;;6.18;63.40;101192.72;5017914;28;20410;-73
2021/05/03 00:38:14;;;;;;;8.07;5.70;;;;;;;6.20;63.47;101195.25;5046703;28;20034;-72
2021/05/03 00:40:40;;;;;;;6.72;5.45;;;;;;;6.17;63.57;101191.06;4998288;28;20041;-72
2021/05/03 00:43:06;;;;;;;7.30;5.63;;;;;;;6.09;63.57;101196.13;5031194;28;20033;-72
2021/05/03 00:45:31;;;;;;;7.80;5.45;;;;;;;6.03;63.86;101187.75;5016717;28;20045;-73
2021/05/03 00:47:57;;;;;;;8.15;5.55;;;;;;;6.02;64.02;101185.28;5052037;28;20029;-73
2021/05/03 00:50:24;;;;;;;7.72;6.10;;;;;;;6.00;64.04;101182.75;5018845;28;20029;-72
2021/05/03 00:52:50;;;;;;;6.97;5.38;;;;;;;5.95;64.16;101177.13;4983660;28;20080;-73
2021/05/03 00:55:15;;;;;;;8.43;5.90;;;;;;;5.87;64.38;101177.50;5033965;28;20029;-73
2021/05/03 00:57:41;;;;;;;7.85;5.72;;;;;;;5.85;64.36;101173.31;5003098;28;20049;-73
2021/05/03 01:00:08;;;;;;;9.25;6.32;;;;;;;5.83;64.99;101176.31;5017730;28;20029;-73
2021/05/03 01:02:34;;;;;;;8.73;5.60;;;;;;;5.82;64.80;101180.16;4999964;28;20026;-73
2021/05/03 01:05:00;;;;;;;8.00;6.15;;;;;;;5.77;64.65;101180.06;5030309;28;20033;-72
2021/05/03 01:07:25;;;;;;;10.73;6.13;;;;;;;5.78;64.71;101173.47;5015357;28;20038;-73
2021/05/03 01:09:51;;;;;;;8.90;5.93;;;;;;;5.70;64.96;101182.13;5019104;28;20033;-73
2021/05/03 01:12:16;;;;;;;8.30;6.05;;;;;;;5.73;64.67;101176.13;5002289;28;20075;-73
2021/05/03 01:14:42;;;;;;;7.30;5.70;;;;;;;5.67;64.65;101171.59;5018750;28;20035;-73
2021/05/03 01:17:07;;;;;;;7.47;6.13;;;;;;;5.69;64.57;101169.44;5017280;28;20394;-73
2021/05/03 01:19:33;;;;;;;8.48;6.22;;;;;;;5.65;65.02;101171.81;4998545;28;20026;-72
2021/05/03 01:21:58;;;;;;;8.40;5.75;;;;;;;5.66;64.89;101175.44;5036079;28;20029;-73
2021/05/03 01:24:24;;;;;;;8.85;6.50;;;;;;;5.62;65.03;101174.25;4997741;28;20025;-73
2021/05/03 01:26:49;;;;;;;8.00;6.30;;;;;;;5.59;64.92;101170.88;5051100;28;20040;-72
2021/05/03 01:29:15;;;;;;;8.52;6.65;;;;;;;5.51;64.95;101176.78;5034820;28;20033;-73
2021/05/03 01:31:41;;;;;;;10.10;6.45;;;;;;;5.50;65.31;101179.81;5043546;28;20113;-72
2021/05/03 01:34:07;;;;;;;7.47;6.22;;;;;;;5.51;65.13;101174.03;4999553;28;20073;-72
2021/05/03 01:36:37;;;;;;;7.63;6.32;;;;;;;5.45;65.38;101175.00;4985977;28;20045;-72
2021/05/03 01:39:05;;;;;;;8.73;6.32;;;;;;;5.43;65.33;101170.81;5044623;28;20486;-73
2021/05/03 01:41:30;;;;;;;8.60;6.60;;;;;;;5.39;65.07;101162.22;5019995;28;20051;-72
2021/05/03 01:43:56;;;;;;;8.27;6.22;;;;;;;5.33;65.33;101165.94;5033083;28;20124;-72
2021/05/03 01:46:21;;;;;;;8.18;6.55;;;;;;;5.32;65.43;101165.13;5034816;28;20040;-73
2021/05/03 01:48:47;;;;;;;9.77;6.55;;;;;;;5.27;65.69;101166.94;4999024;28;20022;-73
2021/05/03 01:51:13;;;;;;;7.63;5.78;;;;;;;5.25;65.47;101169.09;5032504;28;20473;-73
2021/05/03 01:53:38;;;;;;;7.15;5.80;;;;;;;5.18;65.68;101166.44;5016008;28;20104;-75
2021/05/03 01:56:04;;;;;;;8.13;6.15;;;;;;;5.17;65.65;101164.78;5034471;28;20026;-72
2021/05/03 01:58:29;;;;;;;7.25;5.70;;;;;;;5.15;65.80;101164.16;5030799;28;20482;-73
2021/05/03 02:01:00;;;;;;;9.10;6.95;;;;;;;5.07;65.92;101168.16;5010917;28;20033;-73
2021/05/03 02:03:27;;;;;;;8.45;6.72;;;;;;;5.11;66.23;101158.31;5067718;28;20029;-72
2021/05/03 02:05:53;;;;;;;9.60;6.78;;;;;;;5.05;66.22;101169.47;5032754;28;20029;-72
2021/05/03 02:08:18;;;;;;;9.15;6.70;;;;;;;5.04;66.15;101162.28;5041127;28;20080;-73
2021/05/03 02:10:44;;;;;;;7.97;6.38;;;;;;;5.05;65.94;101163.97;5037536;28;20029;-74
2021/05/03 02:13:09;;;;;;;9.70;6.18;;;;;;;4.97;66.04;101164.34;5036191;28;20714;-73
2021/05/03 02:15:35;;;;;;;7.70;5.88;;;;;;;4.98;66.35;101164.09;5003565;28;20025;-73
2021/05/03 02:18:01;;;;;;;8.23;6.38;;;;;;;4.93;66.65;101156.56;5032371;28;20030;-73
2021/05/03 02:20:26;;;;;;;7.60;6.13;;;;;;;4.87;66.28;101157.50;5010615;28;20405;-72
2021/05/03 02:22:52;;;;;;;7.57;5.70;;;;;;;4.89;66.46;101155.34;5021237;28;20034;-73
2021/05/03 02:25:17;;;;;;;7.93;6.38;;;;;;;4.84;66.44;101154.41;5052599;28;20056;-72
2021/05/03 02:27:43;;;;;;;7.28;6.00;;;;;;;4.84;66.54;101152.47;5021901;28;20037;-73
2021/05/03 02:30:09;;;;;;;8.70;6.45;;;;;;;4.84;66.32;101155.22;5004348;28;20025;-73
2021/05/03 02:32:37;;;;;;;8.88;6.32;;;;;;;4.83;66.45;101147.22;5021555;28;20022;-73
2021/05/03 02:35:08;;;;;;;9.63;6.22;;;;;;;4.83;66.63;101144.47;5036109;28;20049;-73
2021/05/03 02:37:33;;;;;;;9.02;6.75;;;;;;;4.78;66.64;101144.34;5006090;28;20072;-72
2021/05/03 02:39:58;;;;;;;8.50;6.57;;;;;;;4.78;66.68;101152.63;5019033;28;20025;-73
2021/05/03 02:42:24;;;;;;;8.07;6.00;;;;;;;4.76;66.87;101154.75;5019805;28;20087;-72
2021/05/03 02:44:50;;;;;;;9.15;6.90;;;;;;;4.72;66.94;101148.06;5054555;28;20033;-73
2021/05/03 02:47:15;;;;;;;8.32;6.03;;;;;;;4.70;67.00;101157.38;5035253;28;20104;-72
2021/05/03 02:49:41;;;;;;;8.40;6.85;;;;;;;4.67;66.94;101157.88;5035188;28;20025;-73
2021/05/03 02:52:07;;;;;;;8.68;6.93;;;;;;;4.70;66.88;101154.63;5021872;28;20038;-73
2021/05/03 02:54:32;;;;;;;9.25;6.55;;;;;;;4.70;66.76;101146.38;5048702;28;20029;-73
2021/05/03 02:56:58;;;;;;;9.00;6.25;;;;;;;4.63;67.01;101137.44;5038707;28;20033;-72
2021/05/03 02:59:23;;;;;;;7.88;6.28;;;;;;;4.61;66.87;101142.31;5033578;28;20618;-72
2021/05/03 03:01:49;;;;;;;9.25;6.80;;;;;;;4.56;67.15;101139.44;5044294;28;20026;-73
2021/05/03 03:04:14;;;;;;;8.43;6.70;;;;;;;4.60;67.09;101142.59;5024126;28;20032;-72
2021/05/03 03:06:40;;;;;;;7.97;6.53;;;;;;;4.59;67.16;101138.97;5051297;28;20044;-72
2021/05/03 03:09:05;;;;;;;8.75;6.70;;;;;;;4.56;67.47;101133.94;5051077;28;20018;-72
2021/05/03 03:11:31;;;;;;;8.77;6.75;;;;;;;4.59;67.58;101136.22;5021947;28;20397;-72
2021/05/03 03:13:57;;;;;;;7.90;6.28;;;;;;;4.54;68.23;101135.25;4999042;28;20120;-72
2021/05/03 03:16:26;;;;;;;9.38;6.80;;;;;;;4.57;68.04;101134.78;5022034;28;20026;-72
2021/05/03 03:18:52;;;;;;;9.88;6.97;;;;;;;4.57;68.09;101130.13;5009057;28;20521;-73
2021/05/03 03:21:18;;;;;;;9.15;7.13;;;;;;;4.63;68.15;101134.69;5048161;28;20021;-72
2021/05/03 03:23:43;;;;;;;8.43;7.03;;;;;;;4.63;68.25;101126.44;5046980;28;20036;-72
2021/05/03 03:26:09;;;;;;;10.15;7.28;;;;;;;4.64;67.94;101128.09;5036800;28;20026;-72
2021/05/03 03:28:34;;;;;;;9.52;7.28;;;;;;;4.72;68.33;101132.41;5034584;28;20025;-73
2021/05/03 03:31:00;;;;;;;8.73;7.28;;;;;;;4.69;68.46;101124.63;5018926;28;20029;-72
2021/05/03 03:33:25;;;;;;;8.93;6.72;;;;;;;4.69;68.36;101119.97;5021314;28;20401;-76
2021/05/03 03:35:51;;;;;;;8.52;6.78;;;;;;;4.74;68.39;101129.41;5030384;28;20426;-75
2021/05/03 03:38:16;;;;;;;10.52;6.93;;;;;;;4.77;68.22;101128.94;5048879;28;20030;-75
2021/05/03 03:40:44;;;;;;;9.02;6.90;;;;;;;4.76;68.31;101130.81;5030477;28;20049;-72
2021/05/03 03:43:10;;;;;;;11.05;7.18;;;;;;;4.77;68.29;101132.53;5032412;28;20030;-73
2021/05/03 03:45:35;;;;;;;9.80;7.00;;;;;;;4.75;68.25;101126.41;5020535;28;20088;-72
2021/05/03 03:48:01;;;;;;;9.57;7.15;;;;;;;4.76;68.23;101133.56;5034948;28;20517;-72
2021/05/03 03:50:26;;;;;;;9.25;6.65;;;;;;;4.72;68.13;101131.56;5017324;28;20540;-72
2021/05/03 03:52:52;;;;;;;8.18;6.18;;;;;;;4.69;68.15;101122.72;5004852;28;20029;-73
2021/05/03 03:55:17;;;;;;;8.55;6.95;;;;;;;4.72;67.77;101128.81;5003796;28;20020;-72
2021/05/03 03:57:43;;;;;;;11.27;7.18;;;;;;;4.66;67.92;101130.63;5003113;28;20048;-72
2021/05/03 04:00:08;;;;;;;7.90;6.43;;;;;;;4.64;67.87;101127.25;5036285;28;20033;-72
2021/05/03 04:02:35;;;;;;;9.65;6.65;;;;;;;4.61;67.70;101130.50;5017460;28;20060;-73
2021/05/03 04:05:10;;;;;;;8.90;6.47;;;;;;;4.59;68.05;101129.88;5029578;28;20029;-72
2021/05/03 04:07:48;;;;;;;9.48;6.95;;;;;;;4.55;68.13;101129.53;5037382;28;20112;-72
2021/05/03 04:10:27;;;;;;;8.52;6.57;;;;;;;4.51;68.00;101128.31;5031771;28;20037;-73
2021/05/03 04:13:14;;;;;;;9.07;7.05;;;;;;;4.48;67.95;101126.03;5034321;28;20033;-72
2021/05/03 04:21:16;;;;;;;9.02;7.13;;;;;;;4.43;67.82;101124.03;5037012;28;20026;-72
2021/05/03 04:26:20;;;;;;;8.90;7.20;;;;;;;4.33;67.73;101122.94;5033850;28;20414;-72
2021/05/03 04:28:47;;;;;;;9.38;7.40;;;;;;;4.30;67.96;101113.25;5033388;28;20081;-72
2021/05/03 04:31:13;;;;;;;9.10;7.18;;;;;;;4.25;68.26;101115.88;5017993;28;20025;-72
2021/05/03 04:33:38;;;;;;;12.93;7.68;;;;;;;4.22;68.25;101117.19;5019808;28;20083;-73
2021/05/03 04:36:04;;;;;;;10.77;7.70;;;;;;;4.23;68.24;101123.50;5014706;28;20038;-72
2021/05/03 04:38:30;;;;;;;8.70;7.10;;;;;;;4.17;68.25;101121.72;5017439;28;20038;-72
2021/05/03 04:40:55;;;;;;;9.50;7.18;;;;;;;4.18;68.20;101121.50;5018166;28;20052;-72
2021/05/03 04:43:21;;;;;;;8.88;6.88;;;;;;;4.10;68.68;101123.75;4988444;28;20040;-72
2021/05/03 04:45:46;;;;;;;11.60;7.78;;;;;;;4.11;68.29;101130.91;5001974;28;20029;-72
2021/05/03 04:48:12;;;;;;;11.00;8.10;;;;;;;4.01;68.53;101125.97;5035205;28;20029;-72
2021/05/03 04:50:37;;;;;;;9.75;7.47;;;;;;;3.98;68.43;101119.06;5030104;28;20034;-72
2021/05/03 04:53:03;;;;;;;10.27;7.82;;;;;;;3.93;68.59;101118.94;5019131;28;20033;-72
2021/05/03 04:55:28;;;;;;;11.48;7.90;;;;;;;3.98;68.54;101131.94;5019961;28;20037;-72
2021/05/03 04:57:54;;;;;;;8.35;7.10;;;;;;;3.96;68.52;101120.38;5029588;28;20029;-72
2021/05/03 05:00:20;;;;;;;8.82;6.85;;;;;;;3.87;68.66;101127.25;5017388;28;20026;-72
2021/05/03 05:02:45;;;;;;;10.25;7.20;;;;;;;3.90;68.77;101124.91;5002018;28;20033;-72
2021/05/03 05:05:12;;;;;;;11.23;7.72;;;;;;;3.87;69.00;101122.59;5062392;28;20493;-72
2021/05/03 05:07:38;;;;;;;9.63;7.75;;;;;;;3.88;68.88;101124.28;4998588;28;20018;-72
2021/05/03 05:10:04;;;;;;;10.73;7.55;;;;;;;3.85;68.92;101112.94;5019011;28;20674;-72
2021/05/03 05:12:29;;;;;;;10.27;7.75;;;;;;;3.82;69.11;101117.00;5017977;28;20586;-73
2021/05/03 05:14:55;;;;;;;10.57;7.68;;;;;;;3.86;69.13;101122.84;4986285;28;20033;-74
2021/05/03 05:17:21;;;;;;;9.98;7.35;;;;;;;3.84;69.16;101122.25;5031539;28;20040;-74
2021/05/03 05:19:49;;;;;;;9.30;7.50;;;;;;;3.87;69.17;101128.09;5031707;28;20100;-74
2021/05/03 05:22:15;;;;;;;10.10;7.13;;;;;;;3.92;69.36;101122.75;5051350;28;20090;-74
2021/05/03 05:24:41;;;;;;;10.68;8.23;;;;;;;3.93;70.23;101129.94;5031791;28;20022;-74
2021/05/03 05:27:06;;;;;;;9.35;7.40;;;;;;;3.99;70.12;101130.91;5035689;28;20036;-74
2021/05/03 05:29:32;;;;;;;10.00;7.85;;;;;;;4.08;70.17;101136.88;5018232;28;20124;-74
2021/05/03 05:31:57;;;;;;;9.93;7.40;;;;;;;4.19;70.41;101131.41;5016895;28;20059;-75
2021/05/03 05:34:23;;;;;;;10.25;8.05;;;;;;;4.26;72.01;101123.03;5029267;28;20030;-72
2021/05/03 05:36:48;;;;;;;10.48;8.30;;;;;;;4.37;72.96;101130.47;5032020;28;20083;-72
2021/05/03 05:39:14;;;;;;;12.75;9.52;;;;;;;4.46;73.50;101128.22;5030790;28;20029;-71
2021/05/03 05:41:40;;;;;;;11.95;9.57;;;;;;;4.60;74.22;101134.31;5045400;28;20022;-73
2021/05/03 05:44:08;;;;;;;16.27;10.73;;;;;;;4.74;75.52;101127.50;5030982;28;20030;-73
2021/05/03 05:46:34;;;;;;;16.40;10.35;;;;;;;4.87;76.02;101129.16;5032872;28;20037;-72
2021/05/03 05:49:00;;;;;;;14.38;10.55;;;;;;;5.01;75.59;101127.81;5026063;28;20030;-74
2021/05/03 05:51:26;;;;;;;15.05;10.88;;;;;;;5.17;77.53;101123.47;5020102;28;20025;-72
2021/05/03 05:53:51;;;;;;;13.52;10.70;;;;;;;5.32;77.60;101125.69;5015518;28;20041;-73
2021/05/03 05:56:17;;;;;;;13.43;9.38;;;;;;;5.49;75.69;101123.00;5021206;28;20096;-72
2021/05/03 05:58:42;;;;;;;13.07;10.32;;;;;;;5.66;75.46;101123.09;5015271;28;20045;-72
2021/05/03 06:01:08;;;;;;;15.32;10.95;;;;;;;5.83;75.50;101127.53;5001843;28;20040;-72
2021/05/03 06:03:33;;;;;;;14.82;9.52;;;;;;;5.99;75.21;101120.41;5033870;28;20029;-72
2021/05/03 06:05:59;;;;;;;14.18;10.27;;;;;;;6.17;73.33;101130.38;5044576;28;20041;-73
2021/05/03 06:08:25;;;;;;;12.43;9.27;;;;;;;6.35;73.89;101125.69;5032276;28;20032;-72
2021/05/03 06:10:51;;;;;;;13.43;9.65;;;;;;;6.52;73.66;101122.91;5015975;28;20026;-72
2021/05/03 06:13:16;;;;;;;17.48;10.80;;;;;;;6.70;74.81;101126.25;5050648;28;20116;-72
2021/05/03 06:15:42;;;;;;;13.88;8.35;;;;;;;6.87;72.04;101119.88;5001814;28;20515;-72
2021/05/03 06:18:08;;;;;;;10.88;9.20;;;;;;;7.09;72.26;101122.66;5033089;28;20042;-73
2021/05/03 06:20:34;;;;;;;12.95;9.95;;;;;;;7.30;72.30;101121.84;5016758;28;20029;-73
2021/05/03 06:23:01;;;;;;;13.05;9.48;;;;;;;7.46;71.49;101127.53;5026656;28;20021;-73
2021/05/03 06:25:26;;;;;;;12.38;9.98;;;;;;;7.66;72.48;101126.91;5016850;28;20106;-73
2021/05/03 06:27:52;;;;;;;12.27;9.02;;;;;;;7.84;71.10;101123.81;5034554;28;20068;-78
2021/05/03 06:30:19;;;;;;;9.27;6.90;;;;;;;8.07;68.25;101122.66;5027339;28;20029;-76
2021/05/03 06:32:44;;;;;;;10.07;7.13;;;;;;;8.28;68.93;101135.56;5062232;28;20326;-77
2021/05/03 06:35:09;;;;;;;10.07;7.00;;;;;;;8.48;67.52;101134.94;5044682;28;20057;-76
2021/05/03 06:37:35;;;;;;;7.78;6.70;;;;;;;8.67;66.61;101132.59;5026936;28;20590;-77
2021/05/03 06:40:00;;;;;;;10.55;7.80;;;;;;;8.90;66.62;101133.28;5033948;28;20041;-77
2021/05/03 06:42:26;;;;;;;9.93;7.80;;;;;;;9.12;66.25;101130.38;5011709;28;20497;-77
2021/05/03 06:44:51;;;;;;;14.20;10.10;;;;;;;9.33;66.54;101128.50;5039079;28;20026;-76
2021/05/03 06:47:17;;;;;;;11.52;9.13;;;;;;;9.50;66.78;101122.75;5016642;28;20032;-77
2021/05/03 06:49:43;;;;;;;13.32;9.20;;;;;;;9.70;66.42;101125.59;5011125;28;20030;-76
2021/05/03 06:52:09;;;;;;;13.23;9.95;;;;;;;9.84;65.60;101117.59;5033194;28;20021;-77
2021/05/03 06:54:34;;;;;;;12.82;10.07;;;;;;;10.04;66.19;101120.41;5031093;28;20037;-73
2021/05/03 06:56:59;;;;;;;12.23;9.98;;;;;;;10.24;67.18;101121.53;5021982;28;20028;-75
2021/05/03 06:59:25;;;;;;;15.57;10.27;;;;;;;10.41;66.84;101122.09;5004319;28;20102;-75
2021/05/03 07:01:51;;;;;;;14.63;9.93;;;;;;;10.57;65.67;101122.09;5025281;28;20021;-75
2021/05/03 07:04:17;;;;;;;11.90;8.52;;;;;;;10.73;64.50;101112.66;5001782;28;20035;-76
2021/05/03 07:06:42;;;;;;;12.65;9.35;;;;;;;10.86;65.66;101116.78;5025511;28;20029;-75
2021/05/03 07:09:09;;;;;;;10.18;7.82;;;;;;;11.05;63.65;101111.44;5020213;28;20025;-75
2021/05/03 07:11:34;;;;;;;9.85;7.30;;;;;;;11.23;62.06;101110.84;5018841;28;20028;-75
2021/05/03 07:14:00;;;;;;;9.45;7.03;;;;;;;11.41;61.66;101101.84;5009183;28;20029;-75
2021/05/03 07:16:25;;;;;;;9.18;6.70;;;;;;;11.59;61.32;101111.50;5017654;28;20025;-75
2021/05/03 07:18:51;;;;;;;7.95;6.45;;;;;;;11.79;60.89;101099.44;5032184;28;20033;-75
2021/05/03 07:21:16;;;;;;;7.50;6.40;;;;;;;11.97;60.77;101097.94;4988126;28;20474;-75
2021/05/03 07:23:42;;;;;;;8.75;6.10;;;;;;;12.15;60.73;101099.22;5034253;28;20068;-75
2021/05/03 07:26:09;;;;;;;7.32;5.45;;;;;;;12.32;60.17;101101.59;5019324;28;20065;-75
2021/05/03 07:28:34;;;;;;;7.70;5.30;;;;;;;12.47;60.43;101101.44;5020514;28;20032;-76
2021/05/03 07:31:00;;;;;;;10.40;5.80;;;;;;;12.63;59.84;101099.34;5017641;28;20030;-75
2021/05/03 07:33:26;;;;;;;8.88;6.05;;;;;;;12.81;60.26;101100.53;5019264;28;20106;-75
2021/05/03 07:35:52;;;;;;;7.40;5.55;;;;;;;12.92;59.47;101098.47;5001770;28;20050;-75
2021/05/03 07:38:18;;;;;;;6.60;4.85;;;;;;;13.04;58.79;101104.50;5027885;28;20401;-75
2021/05/03 07:40:43;;;;;;;6.97;4.78;;;;;;;13.16;58.74;101096.53;5027916;28;20026;-75
2021/05/03 07:43:09;;;;;;;5.28;4.25;;;;;;;13.30;58.35;101095.84;5036455;28;20045;-75
2021/05/03 07:45:34;;;;;;;6.45;4.22;;;;;;;13.42;58.07;101087.88;5020418;28;20033;-75
2021/05/03 07:48:00;;;;;;;5.22;4.25;;;;;;;13.54;58.14;101091.06;5021193;28;20030;-76
2021/05/03 07:50:25;;;;;;;5.00;4.10;;;;;;;13.71;57.49;101093.34;4988498;28;20033;-75
2021/05/03 07:52:54;;;;;;;4.28;3.42;;;;;;;13.85;56.82;101093.44;5034440;28;20022;-75
2021/05/03 07:55:19;;;;;;;5.50;3.80;;;;;;;13.98;56.66;101080.66;5005048;28;20492;-75
2021/05/03 07:57:45;;;;;;;6.38;4.50;;;;;;;14.13;56.45;101086.00;5003962;28;20038;-76
2021/05/03 08:00:11;;;;;;;10.57;6.43;;;;;;;14.28;56.10;101084.91;5016314;28;20029;-75
2021/05/03 08:02:36;;;;;;;9.38;6.70;;;;;;;14.46;55.74;101089.66;5021072;28;20036;-75
2021/05/03 08:05:02;;;;;;;10.93;6.93;;;;;;;14.63;55.48;101085.47;5018310;28;20029;-74
2021/05/03 08:07:28;;;;;;;9.93;6.68;;;;;;;14.78;54.93;101081.56;5046265;28;20021;-70
2021/05/03 08:09:53;;;;;;;9.73;6.05;;;;;;;14.93;54.85;101075.66;5036886;28;20037;-70
2021/05/03 08:12:20;;;;;;;9.18;4.85;;;;;;;15.11;54.62;101073.91;5016319;28;20034;-70
2021/05/03 08:14:46;;;;;;;6.05;4.53;;;;;;;15.24;54.23;101070.28;5017581;28;20029;-70
2021/05/03 08:17:14;;;;;;;6.82;3.92;;;;;;;15.38;54.02;101068.31;5019275;28;20025;-71
2021/05/03 08:19:39;;;;;;;6.75;4.03;;;;;;;15.49;53.71;101066.13;5034224;28;20555;-71
2021/05/03 08:22:05;;;;;;;4.85;3.45;;;;;;;15.62;53.09;101065.22;5019112;28;20029;-71
2021/05/03 08:24:31;;;;;;;6.32;3.45;;;;;;;15.76;53.02;101061.59;5013935;28;20030;-72
2021/05/03 08:26:58;;;;;;;6.60;3.90;;;;;;;15.90;52.61;101069.97;4998544;28;20040;-71
2021/05/03 08:29:24;;;;;;;6.07;3.47;;;;;;;16.03;52.55;101064.31;5019765;28;20096;-72
2021/05/03 08:31:49;;;;;;;5.78;3.53;;;;;;;16.19;52.18;101059.16;5031702;28;20036;-71
2021/05/03 08:34:15;;;;;;;6.97;3.90;;;;;;;16.33;51.71;101050.69;5016397;28;20030;-70
2021/05/03 08:36:40;;;;;;;7.15;3.72;;;;;;;16.46;51.78;101057.34;5022676;28;20049;-71
2021/05/03 08:39:06;;;;;;;5.75;4.03;;;;;;;16.60;51.58;101052.47;5017323;28;20033;-71
2021/05/03 08:41:35;;;;;;;7.85;4.13;;;;;;;16.71;51.25;101050.22;5000523;28;20033;-71
2021/05/03 08:44:00;;;;;;;7.43;4.20;;;;;;;16.85;50.91;101044.56;5019697;28;20029;-71
2021/05/03 08:46:27;;;;;;;7.47;4.18;;;;;;;17.01;50.72;101037.34;5017075;28;20037;-71
2021/05/03 08:49:02;;;;;;;9.00;4.22;;;;;;;17.16;50.54;101041.69;5018997;28;20036;-72
2021/05/03 08:54:32;;;;;;;7.82;4.38;;;;;;;17.46;49.62;101023.09;5045070;28;20432;-71
2021/05/03 08:56:57;;;;;;;6.65;3.70;;;;;;;17.62;49.67;101026.25;4988591;28;20029;-71
2021/05/03 08:59:23;;;;;;;7.05;3.75;;;;;;;17.78;49.79;101023.81;5018818;28;20063;-71
2021/05/03 09:01:49;;;;;;;7.45;3.88;;;;;;;17.87;49.36;101016.22;5015507;28;20041;-71
2021/05/03 09:04:15;;;;;;;7.85;4.20;;;;;;;17.98;49.06;101017.53;5018610;28;20029;-71
2021/05/03 09:07:06;;;;;;;6.45;4.57;;;;;;;18.13;49.03;101023.78;5018549;28;20033;-71
2021/05/03 09:09:35;;;;;;;7.00;5.05;;;;;;;18.21;48.76;101014.53;5025657;28;20037;-71
2021/05/03 09:12:02;;;;;;;6.45;5.00;;;;;;;18.34;48.43;101010.69;5054970;28;24075;-72
2021/05/03 09:14:27;;;;;;;7.53;4.95;;;;;;;18.44;48.30;101010.34;5019138;28;20025;-71
2021/05/03 09:16:53;;;;;;;5.28;4.35;;;;;;;18.56;48.31;101000.41;4984786;28;20391;-72
2021/05/03 09:19:19;;;;;;;5.43;4.25;;;;;;;18.67;48.00;101004.47;5014532;28;20026;-72
2021/05/03 09:21:45;;;;;;;7.05;4.50;;;;;;;18.81;47.63;100998.66;5019711;28;20025;-72
2021/05/03 09:24:26;;;;;;;5.50;4.28;;;;;;;18.90;47.75;100994.63;5016627;28;20540;-72
2021/05/03 09:27:06;;;;;;;5.90;4.20;;;;;;;19.01;47.05;100997.06;4999657;28;20025;-72
2021/05/03 09:29:36;;;;;;;6.78;4.20;;;;;;;19.09;47.05;100988.56;4986760;28;20079;-72
2021/05/03 09:32:12;;;;;;;8.05;4.20;;;;;;;19.21;47.07;100990.66;5047956;28;20029;-72
2021/05/03 09:34:39;;;;;;;4.85;4.10;;;;;;;19.30;46.43;100977.31;5031985;28;20120;-72
2021/05/03 09:37:27;;;;;;;7.47;4.85;;;;;;;19.49;46.11;100973.22;5018769;28;20067;-72
2021/05/03 09:39:53;;;;;;;6.07;4.40;;;;;;;19.56;45.72;100976.34;5017188;28;20466;-72
2021/05/03 09:42:20;;;;;;;5.50;3.75;;;;;;;19.65;46.04;100977.06;5034029;28;20040;-72
2021/05/03 09:45:07;;;;;;;4.95;3.67;;;;;;;19.73;45.34;100967.75;5034550;28;20047;-72
2021/05/03 09:47:33;;;;;;;6.07;3.88;;;;;;;19.84;45.37;100976.63;5049217;28;20083;-72
2021/05/03 09:50:02;;;;;;;7.95;4.78;;;;;;;19.88;44.89;100966.28;5029121;28;20025;-72
2021/05/03 09:52:27;;;;;;;6.70;4.63;;;;;;;19.96;44.70;100961.75;5016580;28;20042;-70
2021/05/03 09:54:53;;;;;;;10.70;4.93;;;;;;;19.92;44.85;100961.63;5029230;28;20036;-75
2021/05/03 09:57:18;;;;;;;13.32;7.25;;;;;;;19.61;44.57;100956.38;5010633;28;20021;-75
2021/05/03 09:59:52;;;;;;;8.35;7.10;;;;;;;19.49;44.20;100959.16;5017673;28;20396;-75
2021/05/03 10:02:19;;;;;;;9.88;7.47;;;;;;;19.31;44.47;100950.03;5015574;28;20022;-75
2021/05/03 10:05:02;;;;;;;10.57;7.63;;;;;;;19.13;44.79;100938.84;5029996;28;20072;-73
2021/05/03 10:07:28;;;;;;;10.75;7.20;;;;;;;19.01;44.96;100937.97;5034076;28;20080;-74
2021/05/03 10:10:00;;;;;;;11.18;6.18;;;;;;;18.88;44.63;100937.84;5031004;28;20033;-72
2021/05/03 10:12:26;;;;;;;11.15;4.97;;;;;;;18.94;44.30;100938.47;5033192;28;20036;-73
2021/05/03 10:14:52;;;;;;;6.40;4.00;;;;;;;19.12;44.63;100922.31;5026589;28;20026;-70
2021/05/03 10:17:17;;;;;;;6.90;3.88;;;;;;;19.31;44.73;100919.03;4999313;28;20033;-72
2021/05/03 10:19:43;;;;;;;6.93;3.70;;;;;;;19.58;43.05;100906.38;5020550;28;20045;-72
2021/05/03 10:22:29;;;;;;;6.70;3.58;;;;;;;19.85;43.03;100902.97;5026984;28;20057;-73
2021/05/03 10:24:57;;;;;;;5.50;2.95;;;;;;;19.98;41.79;100903.03;5031074;28;20120;-71
2021/05/03 10:27:23;;;;;;;4.60;3.40;;;;;;;20.11;41.58;100895.41;5035125;28;20421;-72
2021/05/03 10:29:49;;;;;;;9.10;4.05;;;;;;;20.16;41.02;100887.53;5032331;28;20034;-72
2021/05/03 10:32:22;;;;;;;5.93;3.63;;;;;;;20.17;40.68;100888.34;5036910;28;20029;-72
2021/05/03 10:34:48;;;;;;;;;;;;;;;20.10;39.98;100886.13;5034470;28;20381;-72
2021/05/03 10:37:29;;;;;;;4.05;3.00;;;;;;;20.16;41.31;100881.09;5046334;28;20313;-72
2021/05/03 10:39:59;;;;;;;5.18;3.80;;;;;;;20.14;40.87;100867.31;5049674;28;20037;-72
2021/05/03 10:42:24;;;;;;;4.85;3.50;;;;;;;20.23;40.56;100876.53;5033543;28;20060;-73
2021/05/03 10:45:17;;;;;;;4.72;3.65;;;;;;;20.29;39.89;100863.84;5023547;28;20496;-73
2021/05/03 10:47:46;;;;;;;6.65;4.15;;;;;;;20.30;40.28;100864.66;5027107;28;20037;-73
2021/05/03 10:50:47;;;;;;;5.88;3.92;;;;;;;20.35;40.36;100860.78;5034129;28;20057;-72
2021/05/03 10:53:26;;;;;;;5.10;3.95;;;;;;;20.31;40.02;100849.38;5031697;28;20050;-72
2021/05/03 10:55:53;;;;;;;4.80;3.35;;;;;;;20.35;40.55;100844.69;5038559;28;20478;-72
2021/05/03 10:58:18;;;;;;;5.28;4.10;;;;;;;20.47;40.27;100838.19;5016642;28;20021;-72
2021/05/03 11:01:03;;;;;;;7.25;3.53;;;;;;;20.62;41.26;100820.59;5038846;28;20551;-71
2021/05/03 11:03:54;;;;;;;5.07;3.90;;;;;;;20.70;39.08;100825.28;5020325;28;20029;-72
2021/05/03 11:06:44;;;;;;;6.03;3.50;;;;;;;20.82;39.35;100812.34;5036616;28;20029;-72
2021/05/03 11:11:53;;;;;;;4.50;3.13;;;;;;;20.94;39.28;100820.75;5026152;28;20033;-72
2021/05/03 11:14:22;;;;;;;4.85;3.63;;;;;;;20.88;38.76;100816.56;5018265;28;20042;-72
2021/05/03 11:16:53;;;;;;;5.32;3.63;;;;;;;20.93;38.54;100802.19;5014962;28;20082;-72
2021/05/03 11:19:27;;;;;;;5.78;3.17;;;;;;;20.88;39.09;100800.44;5022117;28;20037;-72
2021/05/03 11:21:53;;;;;;;4.85;3.25;;;;;;;20.91;38.84;100798.91;5034557;28;20049;-72
2021/05/03 11:24:22;;;;;;;4.53;3.30;;;;;;;20.90;39.15;100809.38;5016492;28;20068;-73
2021/05/03 11:26:51;;;;;;;4.25;3.72;;;;;;;20.90;37.24;100805.72;5020591;28;20065;-72
2021/05/03 11:29:21;;;;;;;5.50;3.40;;;;;;;20.87;38.17;100798.78;5016923;28;20033;-72
2021/05/03 11:31:46;;;;;;;4.22;3.47;;;;;;;20.95;37.79;100794.19;5028954;28;20029;-73
2021/05/03 11:34:20;;;;;;;5.28;3.38;;;;;;;20.95;37.65;100791.38;5053396;28;20029;-73
2021/05/03 11:36:53;;;;;;;3.90;2.75;;;;;;;20.98;37.64;100773.72;5017764;28;20137;-73
2021/05/03 11:39:32;;;;;;;6.47;3.00;;;;;;;21.04;37.53;100779.94;5002875;28;20475;-73
2021/05/03 11:44:56;;;;;;;4.40;3.05;;;;;;;21.15;38.15;100773.41;5033213;28;20029;-73
2021/05/03 11:47:30;;;;;;;4.70;2.60;;;;;;;21.17;38.72;100773.88;5067468;28;20033;-73